sensor_id;sensor_type;location;lat;lon;timestamp;pressure;altitude;pressure_sealevel;temperature;humidity
21433;BME280;18592;49.708;10.900;2022-11-21T00:01:40;97543.72;;;9.17;61.37
21433;BME280;18592;49.708;10.900;2022-11-21T00:03:42;97548.31;;;9.17;61.60
21433;BME280;18592;49.708;10.900;2022-11-21T00:05:46;97554.59;;;9.17;61.78
21433;BME280;18592;49.708;10.900;2022-11-21T00:07:51;97543.44;;;9.19;61.80
21433;BME280;18592;49.708;10.900;2022-11-21T00:09:56;97543.19;;;9.20;61.46
21433;BME280;18592;49.708;10.900;2022-11-21T00:11:57;97536.41;;;9.23;61.31
21433;BME280;18592;49.708;10.900;2022-11-21T00:13:59;97545.63;;;9.22;61.68
21433;BME280;18592;49.708;10.900;2022-11-21T00:16:08;97544.78;;;9.21;61.68
21433;BME280;18592;49.708;10.900;2022-11-21T00:18:10;97539.09;;;9.23;61.79
21433;BME280;18592;49.708;10.900;2022-11-21T00:20:13;97531.78;;;9.23;61.45
21433;BME280;18592;49.708;10.900;2022-11-21T00:22:15;97533.41;;;9.24;61.81
21433;BME280;18592;49.708;10.900;2022-11-21T00:24:18;97530.66;;;9.24;61.70
21433;BME280;18592;49.708;10.900;2022-11-21T00:26:19;97524.16;;;9.25;61.44
21433;BME280;18592;49.708;10.900;2022-11-21T00:28:21;97530.66;;;9.24;61.91
21433;BME280;18592;49.708;10.900;2022-11-21T00:30:22;97519.56;;;9.26;61.63
21433;BME280;18592;49.708;10.900;2022-11-21T00:32:24;97514.91;;;9.26;61.89
21433;BME280;18592;49.708;10.900;2022-11-21T00:34:26;97517.63;;;9.26;61.46
21433;BME280;18592;49.708;10.900;2022-11-21T00:36:34;97511.13;;;9.27;61.31
21433;BME280;18592;49.708;10.900;2022-11-21T00:38:38;97521.72;;;9.29;61.34
21433;BME280;18592;49.708;10.900;2022-11-21T00:40:43;97519.00;;;9.29;61.81
21433;BME280;18592;49.708;10.900;2022-11-21T00:43:34;97520.09;;;9.28;61.55
21433;BME280;18592;49.708;10.900;2022-11-21T00:45:42;97518.19;;;9.28;61.37
21433;BME280;18592;49.708;10.900;2022-11-21T00:47:43;97522.53;;;9.29;61.53
21433;BME280;18592;49.708;10.900;2022-11-21T00:49:45;97525.00;;;9.31;61.39
21433;BME280;18592;49.708;10.900;2022-11-21T00:51:47;97520.34;;;9.31;61.46
21433;BME280;18592;49.708;10.900;2022-11-21T00:53:48;97512.19;;;9.31;61.80
21433;BME280;18592;49.708;10.900;2022-11-21T00:56:40;97522.00;;;9.32;61.91
21433;BME280;18592;49.708;10.900;2022-11-21T00:59:07;97514.66;;;9.33;61.47
21433;BME280;18592;49.708;10.900;2022-11-21T01:01:31;97516.56;;;9.32;61.82
21433;BME280;18592;49.708;10.900;2022-11-21T01:03:53;97511.66;;;9.34;61.78
21433;BME280;18592;49.708;10.900;2022-11-21T01:06:12;97507.88;;;9.35;61.48
21433;BME280;18592;49.708;10.900;2022-11-21T01:08:52;97507.06;;;9.35;61.96
21433;BME280;18592;49.708;10.900;2022-11-21T01:11:31;97497.00;;;9.35;61.72
21433;BME280;18592;49.708;10.900;2022-11-21T01:13:57;97495.91;;;9.36;61.80
21433;BME280;18592;49.708;10.900;2022-11-21T01:16:19;97501.09;;;9.38;62.06
21433;BME280;18592;49.708;10.900;2022-11-21T01:18:37;97503.50;;;9.39;62.09
21433;BME280;18592;49.708;10.900;2022-11-21T01:23:28;97492.09;;;9.42;61.76
21433;BME280;18592;49.708;10.900;2022-11-21T01:28:33;97499.19;;;9.43;62.00
21433;BME280;18592;49.708;10.900;2022-11-21T01:33:59;97503.28;;;9.46;62.07
21433;BME280;18592;49.708;10.900;2022-11-21T01:36:48;97494.00;;;9.47;61.66
21433;BME280;18592;49.708;10.900;2022-11-21T01:39:23;97500.00;;;9.49;61.80
21433;BME280;18592;49.708;10.900;2022-11-21T01:44:43;97500.81;;;9.49;62.00
21433;BME280;18592;49.708;10.900;2022-11-21T01:47:09;97499.47;;;9.52;61.69
21433;BME280;18592;49.708;10.900;2022-11-21T01:49:20;97501.94;;;9.53;62.07
21433;BME280;18592;49.708;10.900;2022-11-21T01:52:03;97495.38;;;9.54;61.96
21433;BME280;18592;49.708;10.900;2022-11-21T01:54:20;97492.66;;;9.54;62.01
21433;BME280;18592;49.708;10.900;2022-11-21T01:59:14;97499.22;;;9.58;62.17
21433;BME280;18592;49.708;10.900;2022-11-21T02:01:26;97490.22;;;9.58;61.71
21433;BME280;18592;49.708;10.900;2022-11-21T02:03:52;97487.22;;;9.59;61.92
21433;BME280;18592;49.708;10.900;2022-11-21T02:06:05;97488.88;;;9.61;62.19
21433;BME280;18592;49.708;10.900;2022-11-21T02:08:18;97489.94;;;9.59;62.27
21433;BME280;18592;49.708;10.900;2022-11-21T02:10:20;97490.47;;;9.62;61.94
21433;BME280;18592;49.708;10.900;2022-11-21T02:12:48;97486.41;;;9.64;62.28
21433;BME280;18592;49.708;10.900;2022-11-21T02:14:51;97483.69;;;9.64;62.28
21433;BME280;18592;49.708;10.900;2022-11-21T02:16:57;97484.50;;;9.65;61.92
21433;BME280;18592;49.708;10.900;2022-11-21T02:19:00;97476.88;;;9.67;61.93
21433;BME280;18592;49.708;10.900;2022-11-21T02:21:20;97482.31;;;9.67;61.83
21433;BME280;18592;49.708;10.900;2022-11-21T02:23:34;97477.47;;;9.69;61.63
21433;BME280;18592;49.708;10.900;2022-11-21T02:25:40;97482.91;;;9.69;61.69
21433;BME280;18592;49.708;10.900;2022-11-21T02:27:43;97480.19;;;9.69;61.62
21433;BME280;18592;49.708;10.900;2022-11-21T02:29:45;97488.88;;;9.71;61.56
21433;BME280;18592;49.708;10.900;2022-11-21T02:31:47;97486.69;;;9.73;61.94
21433;BME280;18592;49.708;10.900;2022-11-21T02:33:49;97486.69;;;9.73;61.90
21433;BME280;18592;49.708;10.900;2022-11-21T02:35:59;97487.53;;;9.73;61.85
21433;BME280;18592;49.708;10.900;2022-11-21T02:38:15;97481.53;;;9.76;61.63
21433;BME280;18592;49.708;10.900;2022-11-21T02:40:22;97489.69;;;9.76;61.93
21433;BME280;18592;49.708;10.900;2022-11-21T02:42:42;97474.44;;;9.75;61.63
21433;BME280;18592;49.708;10.900;2022-11-21T02:44:59;97475.28;;;9.76;61.43
21433;BME280;18592;49.708;10.900;2022-11-21T02:47:02;97476.88;;;9.77;61.73
21433;BME280;18592;49.708;10.900;2022-11-21T02:49:05;97469.28;;;9.79;61.64
21433;BME280;18592;49.708;10.900;2022-11-21T02:51:08;97470.09;;;9.79;61.75
21433;BME280;18592;49.708;10.900;2022-11-21T02:53:13;97475.53;;;9.79;61.52
21433;BME280;18592;49.708;10.900;2022-11-21T02:55:15;97471.19;;;9.78;61.45
21433;BME280;18592;49.708;10.900;2022-11-21T02:57:25;97478.00;;;9.81;61.54
21433;BME280;18592;49.708;10.900;2022-11-21T02:59:27;97469.28;;;9.79;61.48
21433;BME280;18592;49.708;10.900;2022-11-21T03:01:28;97463.84;;;9.79;61.73
21433;BME280;18592;49.708;10.900;2022-11-21T03:03:33;97463.56;;;9.80;61.72
21433;BME280;18592;49.708;10.900;2022-11-21T03:05:38;97461.66;;;9.81;61.53
21433;BME280;18592;49.708;10.900;2022-11-21T03:07:44;97467.09;;;9.81;61.01
21433;BME280;18592;49.708;10.900;2022-11-21T03:09:46;97467.09;;;9.81;61.64
21433;BME280;18592;49.708;10.900;2022-11-21T03:11:49;97472.56;;;9.81;61.51
21433;BME280;18592;49.708;10.900;2022-11-21T03:13:51;97470.09;;;9.79;61.72
21433;BME280;18592;49.708;10.900;2022-11-21T03:15:52;97454.56;;;9.80;61.35
21433;BME280;18592;49.708;10.900;2022-11-21T03:17:56;97457.28;;;9.80;61.56
21433;BME280;18592;49.708;10.900;2022-11-21T03:20:05;97456.22;;;9.81;61.23
21433;BME280;18592;49.708;10.900;2022-11-21T03:22:07;97453.50;;;9.81;61.45
21433;BME280;18592;49.708;10.900;2022-11-21T03:24:10;97457.03;;;9.81;61.38
21433;BME280;18592;49.708;10.900;2022-11-21T03:26:12;97454.03;;;9.83;61.50
21433;BME280;18592;49.708;10.900;2022-11-21T03:28:13;97459.47;;;9.83;61.26
21433;BME280;18592;49.708;10.900;2022-11-21T03:30:19;97458.66;;;9.82;61.41
21433;BME280;18592;49.708;10.900;2022-11-21T03:32:21;97461.13;;;9.84;61.55
21433;BME280;18592;49.708;10.900;2022-11-21T03:34:23;97458.94;;;9.86;61.50
21433;BME280;18592;49.708;10.900;2022-11-21T03:36:26;97458.13;;;9.85;61.49
21433;BME280;18592;49.708;10.900;2022-11-21T03:38:27;97444.22;;;9.87;61.28
21433;BME280;18592;49.708;10.900;2022-11-21T03:40:29;97454.56;;;9.85;61.25
21433;BME280;18592;49.708;10.900;2022-11-21T03:42:31;97454.56;;;9.85;61.50
21433;BME280;18592;49.708;10.900;2022-11-21T03:44:33;97450.50;;;9.87;61.30
21433;BME280;18592;49.708;10.900;2022-11-21T03:46:37;97451.31;;;9.88;61.27
21433;BME280;18592;49.708;10.900;2022-11-21T03:48:39;97461.66;;;9.86;61.59
21433;BME280;18592;49.708;10.900;2022-11-21T03:50:42;97451.31;;;9.88;61.56
21433;BME280;18592;49.708;10.900;2022-11-21T03:52:44;97455.94;;;9.87;61.66
21433;BME280;18592;49.708;10.900;2022-11-21T03:54:47;97459.47;;;9.88;61.26
21433;BME280;18592;49.708;10.900;2022-11-21T03:56:52;97456.75;;;9.88;61.37
21433;BME280;18592;49.708;10.900;2022-11-21T03:58:54;97454.31;;;9.86;61.45
21433;BME280;18592;49.708;10.900;2022-11-21T04:00:58;97452.38;;;9.87;61.32
21433;BME280;18592;49.708;10.900;2022-11-21T04:03:00;97458.41;;;9.89;61.26
21433;BME280;18592;49.708;10.900;2022-11-21T04:05:02;97458.94;;;9.91;61.23
21433;BME280;18592;49.708;10.900;2022-11-21T04:07:04;97460.56;;;9.92;61.51
21433;BME280;18592;49.708;10.900;2022-11-21T04:09:05;97452.66;;;9.90;61.26
21433;BME280;18592;49.708;10.900;2022-11-21T04:11:07;97454.56;;;9.90;61.73
21433;BME280;18592;49.708;10.900;2022-11-21T04:13:09;97443.69;;;9.90;61.38
21433;BME280;18592;49.708;10.900;2022-11-21T04:15:10;97440.72;;;9.91;61.35
21433;BME280;18592;49.708;10.900;2022-11-21T04:17:14;97443.16;;;9.93;61.01
21433;BME280;18592;49.708;10.900;2022-11-21T04:19:17;97438.53;;;9.93;61.45
21433;BME280;18592;49.708;10.900;2022-11-21T04:21:18;97442.84;;;9.94;61.55
21433;BME280;18592;49.708;10.900;2022-11-21T04:23:20;97442.59;;;9.96;61.72
21433;BME280;18592;49.708;10.900;2022-11-21T04:25:22;97448.31;;;9.94;61.38
21433;BME280;18592;49.708;10.900;2022-11-21T04:27:26;97446.41;;;9.95;61.27
21433;BME280;18592;49.708;10.900;2022-11-21T04:29:28;97443.69;;;9.95;61.43
21433;BME280;18592;49.708;10.900;2022-11-21T04:31:30;97459.19;;;9.94;61.47
21433;BME280;18592;49.708;10.900;2022-11-21T04:33:31;97451.03;;;9.94;61.37
21433;BME280;18592;49.708;10.900;2022-11-21T04:35:34;97456.47;;;9.94;61.63
21433;BME280;18592;49.708;10.900;2022-11-21T04:37:37;97442.84;;;9.94;61.45
21433;BME280;18592;49.708;10.900;2022-11-21T04:39:40;97446.94;;;9.97;61.65
21433;BME280;18592;49.708;10.900;2022-11-21T04:41:42;97448.88;;;9.96;61.50
21433;BME280;18592;49.708;10.900;2022-11-21T04:43:44;97448.03;;;9.96;61.33
21433;BME280;18592;49.708;10.900;2022-11-21T04:45:45;97446.94;;;9.97;61.42
21433;BME280;18592;49.708;10.900;2022-11-21T04:47:47;97448.56;;;9.98;61.60
21433;BME280;18592;49.708;10.900;2022-11-21T04:49:56;97449.94;;;9.95;61.63
21433;BME280;18592;49.708;10.900;2022-11-21T04:52:00;97448.03;;;9.96;61.44
21433;BME280;18592;49.708;10.900;2022-11-21T04:54:03;97451.03;;;9.94;61.62
21433;BME280;18592;49.708;10.900;2022-11-21T04:56:05;97441.78;;;9.95;61.48
21433;BME280;18592;49.708;10.900;2022-11-21T04:58:07;97439.06;;;9.95;61.22
21433;BME280;18592;49.708;10.900;2022-11-21T05:00:10;97444.50;;;9.95;61.23
21433;BME280;18592;49.708;10.900;2022-11-21T05:02:12;97442.59;;;9.96;61.37
21433;BME280;18592;49.708;10.900;2022-11-21T05:04:15;97441.78;;;9.95;61.28
21433;BME280;18592;49.708;10.900;2022-11-21T05:06:19;97442.59;;;9.96;61.37
21433;BME280;18592;49.708;10.900;2022-11-21T05:08:20;97432.53;;;9.96;61.07
21433;BME280;18592;49.708;10.900;2022-11-21T05:10:22;97436.34;;;9.95;61.32
21433;BME280;18592;49.708;10.900;2022-11-21T05:12:24;97435.50;;;9.95;61.29
21433;BME280;18592;49.708;10.900;2022-11-21T05:14:46;97440.41;;;9.93;61.13
21433;BME280;18592;49.708;10.900;2022-11-21T05:16:48;97443.97;;;9.93;61.11
21433;BME280;18592;49.708;10.900;2022-11-21T05:18:50;97443.97;;;9.93;61.35
21433;BME280;18592;49.708;10.900;2022-11-21T05:20:55;97444.78;;;9.94;61.38
21433;BME280;18592;49.708;10.900;2022-11-21T05:23:03;97442.31;;;9.92;61.09
21433;BME280;18592;49.708;10.900;2022-11-21T05:25:04;97438.78;;;9.92;61.53
21433;BME280;18592;49.708;10.900;2022-11-21T05:27:06;97451.59;;;9.91;61.45
21433;BME280;18592;49.708;10.900;2022-11-21T05:29:08;97457.84;;;9.92;61.48
21433;BME280;18592;49.708;10.900;2022-11-21T05:31:09;97452.66;;;9.90;61.42
21433;BME280;18592;49.708;10.900;2022-11-21T05:33:11;97451.59;;;9.91;61.22
21433;BME280;18592;49.708;10.900;2022-11-21T05:35:13;97448.06;;;9.91;61.23
21433;BME280;18592;49.708;10.900;2022-11-21T05:37:15;97447.22;;;9.90;61.54
21433;BME280;18592;49.708;10.900;2022-11-21T05:39:17;97452.97;;;9.89;61.04
21433;BME280;18592;49.708;10.900;2022-11-21T05:41:19;97456.75;;;9.88;61.48
21433;BME280;18592;49.708;10.900;2022-11-21T05:43:20;97449.66;;;9.87;61.34
21433;BME280;18592;49.708;10.900;2022-11-21T05:45:40;97453.50;;;9.86;61.33
21433;BME280;18592;49.708;10.900;2022-11-21T05:47:42;97448.88;;;9.86;61.78
21433;BME280;18592;49.708;10.900;2022-11-21T05:49:44;97441.78;;;9.85;60.71
21433;BME280;18592;49.708;10.900;2022-11-21T05:51:45;97440.97;;;9.85;61.45
21433;BME280;18592;49.708;10.900;2022-11-21T05:53:50;97443.69;;;9.85;61.12
21433;BME280;18592;49.708;10.900;2022-11-21T05:55:51;97440.97;;;9.85;61.25
21433;BME280;18592;49.708;10.900;2022-11-21T05:58:02;97440.97;;;9.85;61.15
21433;BME280;18592;49.708;10.900;2022-11-21T06:00:04;97446.41;;;9.85;61.33
21433;BME280;18592;49.708;10.900;2022-11-21T06:02:12;97453.75;;;9.84;61.38
21433;BME280;18592;49.708;10.900;2022-11-21T06:04:32;97456.75;;;9.83;61.47
21433;BME280;18592;49.708;10.900;2022-11-21T06:06:33;97454.84;;;9.83;61.60
21433;BME280;18592;49.708;10.900;2022-11-21T06:08:45;97463.03;;;9.83;61.53
21433;BME280;18592;49.708;10.900;2022-11-21T06:10:47;97456.75;;;9.83;61.19
21433;BME280;18592;49.708;10.900;2022-11-21T06:12:49;97457.59;;;9.83;61.53
21433;BME280;18592;49.708;10.900;2022-11-21T06:14:51;97461.13;;;9.84;61.40
21433;BME280;18592;49.708;10.900;2022-11-21T06:16:52;97462.75;;;9.85;61.11
21433;BME280;18592;49.708;10.900;2022-11-21T06:18:54;97463.84;;;9.84;61.19
21433;BME280;18592;49.708;10.900;2022-11-21T06:21:03;97459.19;;;9.84;61.34
21433;BME280;18592;49.708;10.900;2022-11-21T06:23:10;97462.19;;;9.83;61.38
21433;BME280;18592;49.708;10.900;2022-11-21T06:25:13;97467.66;;;9.83;61.18
21433;BME280;18592;49.708;10.900;2022-11-21T06:27:14;97468.47;;;9.83;60.99
21433;BME280;18592;49.708;10.900;2022-11-21T06:29:17;97475.53;;;9.84;61.40
21433;BME280;18592;49.708;10.900;2022-11-21T06:31:26;97477.72;;;9.82;60.94
21433;BME280;18592;49.708;10.900;2022-11-21T06:33:28;97479.59;;;9.82;60.92
21433;BME280;18592;49.708;10.900;2022-11-21T06:35:30;97478.00;;;9.81;60.97
21433;BME280;18592;49.708;10.900;2022-11-21T06:37:32;97481.78;;;9.80;61.29
21433;BME280;18592;49.708;10.900;2022-11-21T06:39:34;97481.78;;;9.80;61.01
21433;BME280;18592;49.708;10.900;2022-11-21T06:41:35;97480.97;;;9.79;61.31
21433;BME280;18592;49.708;10.900;2022-11-21T06:43:37;97482.06;;;9.78;60.93
21433;BME280;18592;49.708;10.900;2022-11-21T06:45:46;97490.78;;;9.80;61.04
21433;BME280;18592;49.708;10.900;2022-11-21T06:47:48;97489.69;;;9.81;61.40
21433;BME280;18592;49.708;10.900;2022-11-21T06:49:50;97487.78;;;9.82;60.93
21433;BME280;18592;49.708;10.900;2022-11-21T06:51:51;97503.31;;;9.81;61.05
21433;BME280;18592;49.708;10.900;2022-11-21T06:53:55;97497.28;;;9.79;61.32
21433;BME280;18592;49.708;10.900;2022-11-21T06:55:58;97498.66;;;9.77;60.94
21433;BME280;18592;49.708;10.900;2022-11-21T06:58:03;97496.50;;;9.79;61.06
21433;BME280;18592;49.708;10.900;2022-11-21T07:00:05;97504.66;;;9.79;61.40
21433;BME280;18592;49.708;10.900;2022-11-21T07:02:13;97504.66;;;9.79;61.01
21433;BME280;18592;49.708;10.900;2022-11-21T07:04:15;97502.75;;;9.79;60.98
21433;BME280;18592;49.708;10.900;2022-11-21T07:06:16;97503.56;;;9.80;61.46
21433;BME280;18592;49.708;10.900;2022-11-21T07:08:18;97501.94;;;9.79;61.39
21433;BME280;18592;49.708;10.900;2022-11-21T07:10:23;97509.53;;;9.77;61.27
21433;BME280;18592;49.708;10.900;2022-11-21T07:12:24;97508.19;;;9.79;61.23
21433;BME280;18592;49.708;10.900;2022-11-21T07:14:44;97514.44;;;9.80;61.42
21433;BME280;18592;49.708;10.900;2022-11-21T07:16:46;97509.28;;;9.78;61.28
21433;BME280;18592;49.708;10.900;2022-11-21T07:18:48;97518.81;;;9.81;61.08
21433;BME280;18592;49.708;10.900;2022-11-21T07:20:50;97519.06;;;9.79;61.19
21433;BME280;18592;49.708;10.900;2022-11-21T07:22:55;97520.72;;;9.80;61.39
21433;BME280;18592;49.708;10.900;2022-11-21T07:24:57;97514.44;;;9.80;61.39
21433;BME280;18592;49.708;10.900;2022-11-21T07:27:00;97520.72;;;9.80;61.49
21433;BME280;18592;49.708;10.900;2022-11-21T07:29:01;97525.63;;;9.83;61.77
21433;BME280;18592;49.708;10.900;2022-11-21T07:31:03;97531.06;;;9.83;61.46
21433;BME280;18592;49.708;10.900;2022-11-21T07:33:13;97526.69;;;9.82;61.33
21433;BME280;18592;49.708;10.900;2022-11-21T07:35:16;97528.34;;;9.83;61.57
21433;BME280;18592;49.708;10.900;2022-11-21T07:37:20;97526.44;;;9.84;61.17
21433;BME280;18592;49.708;10.900;2022-11-21T07:39:21;97523.16;;;9.82;61.87
21433;BME280;18592;49.708;10.900;2022-11-21T07:41:23;97533.50;;;9.85;61.65
21433;BME280;18592;49.708;10.900;2022-11-21T07:43:25;97524.78;;;9.88;61.77
21433;BME280;18592;49.708;10.900;2022-11-21T07:45:26;97523.72;;;9.89;61.66
21433;BME280;18592;49.708;10.900;2022-11-21T07:47:28;97518.00;;;9.85;61.94
21433;BME280;18592;49.708;10.900;2022-11-21T07:49:30;97525.88;;;9.87;61.99
21433;BME280;18592;49.708;10.900;2022-11-21T07:51:32;97526.44;;;9.89;61.71
21433;BME280;18592;49.708;10.900;2022-11-21T07:53:33;97529.69;;;9.91;61.66
21433;BME280;18592;49.708;10.900;2022-11-21T07:55:35;97530.25;;;9.93;61.64
21433;BME280;18592;49.708;10.900;2022-11-21T07:57:41;97531.88;;;9.94;61.81
21433;BME280;18592;49.708;10.900;2022-11-21T07:59:43;97532.44;;;9.96;61.96
21433;BME280;18592;49.708;10.900;2022-11-21T08:01:45;97535.16;;;9.96;61.87
21433;BME280;18592;49.708;10.900;2022-11-21T08:03:47;97538.94;;;9.95;62.13
21433;BME280;18592;49.708;10.900;2022-11-21T08:05:49;97535.41;;;9.99;62.00
21433;BME280;18592;49.708;10.900;2022-11-21T08:07:51;97541.66;;;10.00;61.90
21433;BME280;18592;49.708;10.900;2022-11-21T08:09:53;97533.25;;;10.01;61.88
21433;BME280;18592;49.708;10.900;2022-11-21T08:11:54;97539.22;;;10.03;62.15
21433;BME280;18592;49.708;10.900;2022-11-21T08:13:58;97538.13;;;10.04;61.73
21433;BME280;18592;49.708;10.900;2022-11-21T08:16:03;97546.56;;;10.08;62.12
21433;BME280;18592;49.708;10.900;2022-11-21T08:18:13;97540.06;;;10.09;62.28
21433;BME280;18592;49.708;10.900;2022-11-21T08:20:16;97537.34;;;10.09;62.32
21433;BME280;18592;49.708;10.900;2022-11-21T08:22:20;97529.44;;;10.12;62.05
21433;BME280;18592;49.708;10.900;2022-11-21T08:24:22;97534.06;;;10.17;62.21
21433;BME280;18592;49.708;10.900;2022-11-21T08:26:24;97541.44;;;10.16;61.93
21433;BME280;18592;49.708;10.900;2022-11-21T08:28:25;97529.72;;;10.21;62.15
21433;BME280;18592;49.708;10.900;2022-11-21T08:30:27;97527.25;;;10.25;61.96
21433;BME280;18592;49.708;10.900;2022-11-21T08:32:30;97529.44;;;10.28;61.91
21433;BME280;18592;49.708;10.900;2022-11-21T08:34:31;97526.69;;;10.33;62.24
21433;BME280;18592;49.708;10.900;2022-11-21T08:36:33;97530.78;;;10.35;62.23
21433;BME280;18592;49.708;10.900;2022-11-21T08:38:35;97528.34;;;10.39;61.96
21433;BME280;18592;49.708;10.900;2022-11-21T08:40:36;97531.34;;;10.42;62.31
21433;BME280;18592;49.708;10.900;2022-11-21T08:42:38;97528.88;;;10.46;62.19
21433;BME280;18592;49.708;10.900;2022-11-21T08:44:39;97529.16;;;10.49;62.25
21433;BME280;18592;49.708;10.900;2022-11-21T08:46:41;97539.22;;;10.54;62.17
21433;BME280;18592;49.708;10.900;2022-11-21T08:48:43;97533.47;;;10.55;62.14
21433;BME280;18592;49.708;10.900;2022-11-21T08:50:44;97538.38;;;10.58;62.28
21433;BME280;18592;49.708;10.900;2022-11-21T08:52:58;97547.09;;;10.60;62.06
21433;BME280;18592;49.708;10.900;2022-11-21T08:54:59;97553.88;;;10.63;62.12
21433;BME280;18592;49.708;10.900;2022-11-21T08:57:01;97542.72;;;10.64;61.95
21433;BME280;18592;49.708;10.900;2022-11-21T08:59:03;97552.25;;;10.67;61.93
21433;BME280;18592;49.708;10.900;2022-11-21T09:01:05;97554.69;;;10.68;62.04
21433;BME280;18592;49.708;10.900;2022-11-21T09:03:09;97561.25;;;10.72;61.75
21433;BME280;18592;49.708;10.900;2022-11-21T09:05:10;97559.31;;;10.73;62.33
21433;BME280;18592;49.708;10.900;2022-11-21T09:07:12;97565.34;;;10.75;62.29
21433;BME280;18592;49.708;10.900;2022-11-21T09:09:14;97567.22;;;10.79;62.03
21433;BME280;18592;49.708;10.900;2022-11-21T09:11:22;97557.69;;;10.82;62.50
21433;BME280;18592;49.708;10.900;2022-11-21T09:13:26;97558.50;;;10.88;62.42
21433;BME280;18592;49.708;10.900;2022-11-21T09:15:28;97561.19;;;10.93;62.20
21433;BME280;18592;49.708;10.900;2022-11-21T09:18:05;97565.81;;;10.97;62.01
21433;BME280;18592;49.708;10.900;2022-11-21T09:20:10;97560.34;;;11.02;62.08
21433;BME280;18592;49.708;10.900;2022-11-21T09:22:12;97570.69;;;11.05;62.27
21433;BME280;18592;49.708;10.900;2022-11-21T09:24:14;97562.22;;;11.07;62.39
21433;BME280;18592;49.708;10.900;2022-11-21T09:26:15;97566.84;;;11.06;62.39
21433;BME280;18592;49.708;10.900;2022-11-21T09:28:17;97560.56;;;11.06;62.12
21433;BME280;18592;49.708;10.900;2022-11-21T09:30:24;97565.47;;;11.09;62.24
21433;BME280;18592;49.708;10.900;2022-11-21T09:32:26;97568.75;;;11.11;62.06
21433;BME280;18592;49.708;10.900;2022-11-21T09:34:27;97569.03;;;11.09;62.25
21433;BME280;18592;49.708;10.900;2022-11-21T09:36:32;97568.75;;;11.06;61.87
21433;BME280;18592;49.708;10.900;2022-11-21T09:38:33;97574.78;;;11.08;62.00
21433;BME280;18592;49.708;10.900;2022-11-21T09:40:44;97567.13;;;11.10;61.70
21433;BME280;18592;49.708;10.900;2022-11-21T09:45:19;97561.69;;;11.10;61.83
21433;BME280;18592;49.708;10.900;2022-11-21T09:47:29;97569.00;;;11.14;61.70
21433;BME280;18592;49.708;10.900;2022-11-21T09:49:39;97566.56;;;11.13;61.47
21433;BME280;18592;49.708;10.900;2022-11-21T09:51:43;97563.03;;;11.12;61.61
21433;BME280;18592;49.708;10.900;2022-11-21T09:53:54;97563.28;;;11.16;60.94
21433;BME280;18592;49.708;10.900;2022-11-21T09:56:03;97565.72;;;11.17;61.26
21433;BME280;18592;49.708;10.900;2022-11-21T09:58:19;97560.28;;;11.17;60.96
21433;BME280;18592;49.708;10.900;2022-11-21T10:00:24;97565.19;;;11.15;60.84
21433;BME280;18592;49.708;10.900;2022-11-21T10:02:26;97563.28;;;11.16;60.78
21433;BME280;18592;49.708;10.900;2022-11-21T10:04:27;97561.66;;;11.15;60.67
21433;BME280;18592;49.708;10.900;2022-11-21T10:06:37;97569.28;;;11.18;60.87
21433;BME280;18592;49.708;10.900;2022-11-21T10:11:40;97567.13;;;11.10;61.47
21433;BME280;18592;49.708;10.900;2022-11-21T10:16:25;97549.38;;;11.12;61.81
21433;BME280;18592;49.708;10.900;2022-11-21T10:23:31;97539.81;;;11.20;61.57
21433;BME280;18592;49.708;10.900;2022-11-21T10:25:37;97535.41;;;11.24;61.62
21433;BME280;18592;49.708;10.900;2022-11-21T10:27:45;97535.72;;;11.22;61.63
21433;BME280;18592;49.708;10.900;2022-11-21T10:29:54;97532.44;;;11.25;61.30
21433;BME280;18592;49.708;10.900;2022-11-21T10:32:02;97531.31;;;11.26;61.41
21433;BME280;18592;49.708;10.900;2022-11-21T10:34:14;97526.69;;;11.27;61.13
21433;BME280;18592;49.708;10.900;2022-11-21T10:36:29;97540.31;;;11.27;61.12
21433;BME280;18592;49.708;10.900;2022-11-21T10:38:37;97535.69;;;11.27;60.61
21433;BME280;18592;49.708;10.900;2022-11-21T10:40:53;97533.22;;;11.26;60.83
21433;BME280;18592;49.708;10.900;2022-11-21T10:43:09;97541.41;;;11.26;60.66
21433;BME280;18592;49.708;10.900;2022-11-21T10:45:35;97537.88;;;11.25;60.82
21433;BME280;18592;49.708;10.900;2022-11-21T10:47:37;97538.66;;;11.26;60.64
21433;BME280;18592;49.708;10.900;2022-11-21T10:49:39;97536.25;;;11.24;60.67
21433;BME280;18592;49.708;10.900;2022-11-21T10:51:51;97533.50;;;11.24;60.97
21433;BME280;18592;49.708;10.900;2022-11-21T10:56:27;97531.88;;;11.23;61.33
21433;BME280;18592;49.708;10.900;2022-11-21T10:58:56;97524.50;;;11.24;61.48
21433;BME280;18592;49.708;10.900;2022-11-21T11:01:00;97521.75;;;11.29;61.49
21433;BME280;18592;49.708;10.900;2022-11-21T11:03:08;97521.22;;;11.27;61.51
21433;BME280;18592;49.708;10.900;2022-11-21T11:05:19;97526.94;;;11.30;61.50
21433;BME280;18592;49.708;10.900;2022-11-21T11:07:23;97526.34;;;11.33;61.52
21433;BME280;18592;49.708;10.900;2022-11-21T11:09:28;97529.91;;;11.34;61.39
21433;BME280;18592;49.708;10.900;2022-11-21T11:11:30;97531.56;;;11.35;61.65
21433;BME280;18592;49.708;10.900;2022-11-21T11:13:47;97520.88;;;11.38;61.07
21433;BME280;18592;49.708;10.900;2022-11-21T11:16:01;97522.00;;;11.37;61.65
21433;BME280;18592;49.708;10.900;2022-11-21T11:18:05;97501.50;;;11.40;61.33
21433;BME280;18592;49.708;10.900;2022-11-21T11:20:50;97509.94;;;11.43;61.63
21433;BME280;18592;49.708;10.900;2022-11-21T11:22:52;97504.75;;;11.47;61.48
21433;BME280;18592;49.708;10.900;2022-11-21T11:24:53;97511.25;;;11.51;62.09
21433;BME280;18592;49.708;10.900;2022-11-21T11:27:01;97508.78;;;11.55;62.10
21433;BME280;18592;49.708;10.900;2022-11-21T11:29:12;97512.00;;;11.62;61.87
21433;BME280;18592;49.708;10.900;2022-11-21T11:31:17;97504.63;;;11.62;61.74
21433;BME280;18592;49.708;10.900;2022-11-21T11:33:39;97493.47;;;11.64;61.49
21433;BME280;18592;49.708;10.900;2022-11-21T11:35:41;97500.25;;;11.66;61.41
21433;BME280;18592;49.708;10.900;2022-11-21T11:37:58;97490.94;;;11.67;61.72